createdAt,value
2019-05-13T00:01:24.386Z,13.83
2019-05-13T00:03:55.528Z,14.63
2019-05-13T00:06:26.630Z,13.95
2019-05-13T00:08:59.004Z,11.53
2019-05-13T00:11:30.221Z,12.13
2019-05-13T00:14:01.135Z,10.97
2019-05-13T00:16:34.170Z,13.45
2019-05-13T00:19:05.032Z,13.53
2019-05-13T00:21:36.359Z,13.80
2019-05-13T00:24:07.517Z,11.53
2019-05-13T00:26:39.024Z,14.23
2019-05-13T00:29:10.100Z,13.27
2019-05-13T00:31:43.700Z,12.67
2019-05-13T00:34:14.600Z,11.37
2019-05-13T00:36:45.954Z,13.10
2019-05-13T00:39:17.390Z,10.67
2019-05-13T00:41:48.648Z,10.07
2019-05-13T00:44:19.812Z,10.57
2019-05-13T00:46:50.898Z,12.23
2019-05-13T00:49:23.887Z,9.13
2019-05-13T00:51:55.977Z,8.37
2019-05-13T00:54:26.930Z,7.67
2019-05-13T00:56:57.905Z,8.37
2019-05-13T00:59:29.115Z,8.05
2019-05-13T01:02:00.301Z,6.10
2019-05-13T01:04:33.700Z,6.67
2019-05-13T01:07:04.645Z,8.15
2019-05-13T01:09:36.192Z,7.60
2019-05-13T01:12:07.223Z,6.43
2019-05-13T01:14:38.963Z,6.67
2019-05-13T01:17:10.405Z,6.10
2019-05-13T01:19:43.317Z,6.73
2019-05-13T01:22:14.673Z,9.05
2019-05-13T01:24:45.755Z,7.10
2019-05-13T01:27:17.129Z,7.27
2019-05-13T01:29:48.414Z,6.83
2019-05-13T01:32:19.367Z,5.93
2019-05-13T01:34:50.486Z,5.17
2019-05-13T01:37:24.773Z,6.20
2019-05-13T01:39:56.415Z,5.57
2019-05-13T01:42:27.649Z,6.43
2019-05-13T01:44:58.777Z,7.70
2019-05-13T01:47:30.282Z,7.50
2019-05-13T01:50:04.079Z,5.50
2019-05-13T01:52:34.492Z,6.73
2019-05-13T01:55:08.064Z,5.20
2019-05-13T01:57:39.286Z,5.17
2019-05-13T02:00:13.762Z,6.00
2019-05-13T02:02:44.485Z,6.17
2019-05-13T02:05:16.054Z,5.33
2019-05-13T02:07:57.016Z,5.07
2019-05-13T02:10:22.063Z,5.10
2019-05-13T02:12:53.615Z,5.57
2019-05-13T02:15:24.861Z,5.75
2019-05-13T02:17:55.900Z,6.80
2019-05-13T02:20:27.096Z,6.67
2019-05-13T02:22:58.221Z,4.37
2019-05-13T02:25:29.396Z,5.57
2019-05-13T02:28:00.526Z,5.23
2019-05-13T02:30:34.932Z,6.60
2019-05-13T02:33:04.509Z,5.33
2019-05-13T02:35:35.601Z,5.37
2019-05-13T02:38:19.696Z,5.37
2019-05-13T02:40:42.917Z,6.87
2019-05-13T02:43:13.761Z,6.23
2019-05-13T02:45:45.085Z,5.57
2019-05-13T02:48:16.460Z,6.27
2019-05-13T02:50:47.517Z,6.67
2019-05-13T02:53:18.577Z,8.23
2019-05-13T02:55:52.312Z,9.53
2019-05-13T02:58:24.162Z,10.33
2019-05-13T03:00:55.206Z,9.87
2019-05-13T03:03:26.482Z,13.00
2019-05-13T03:05:57.943Z,12.13
2019-05-13T03:08:48.322Z,11.10
2019-05-13T03:11:03.029Z,11.87
2019-05-13T03:13:34.377Z,14.07
2019-05-13T03:16:13.242Z,12.80
2019-05-13T03:18:44.474Z,11.90
2019-05-13T03:21:15.779Z,12.60
2019-05-13T03:23:46.752Z,12.67
2019-05-13T03:26:17.951Z,12.07
2019-05-13T03:28:52.162Z,11.37
2019-05-13T03:31:26.539Z,12.00
2019-05-13T03:33:56.708Z,18.00
2019-05-13T03:36:28.409Z,10.90
2019-05-13T03:39:06.932Z,8.13
2019-05-13T03:41:36.394Z,8.03
2019-05-13T03:44:13.535Z,11.77
2019-05-13T03:46:45.991Z,9.97
2019-05-13T03:49:23.064Z,12.70
2019-05-13T03:51:53.633Z,10.80
2019-05-13T03:54:25.097Z,9.67
2019-05-13T03:56:56.999Z,10.93
2019-05-13T03:59:28.361Z,9.67
2019-05-13T04:02:02.481Z,12.07
2019-05-13T04:04:32.767Z,13.07
2019-05-13T04:07:04.205Z,9.77
2019-05-13T04:09:36.752Z,11.43
2019-05-13T04:12:08.427Z,11.87
2019-05-13T04:14:42.185Z,11.60
2019-05-13T04:17:12.787Z,15.77
2019-05-13T04:19:44.475Z,16.50
2019-05-13T04:22:15.873Z,18.10
2019-05-13T04:24:48.119Z,19.27
2019-05-13T04:27:19.384Z,20.50
2019-05-13T04:29:52.793Z,17.87
2019-05-13T04:32:28.241Z,14.97
2019-05-13T04:34:57.177Z,13.50
2019-05-13T04:37:28.288Z,15.23
2019-05-13T04:40:03.379Z,15.40
2019-05-13T04:42:33.290Z,11.33
2019-05-13T04:45:06.166Z,15.07
2019-05-13T04:47:37.235Z,11.43
2019-05-13T04:50:12.826Z,15.67
2019-05-13T04:52:43.031Z,11.70
2019-05-13T04:55:14.372Z,11.83
2019-05-13T04:57:45.761Z,10.47
2019-05-13T05:00:23.364Z,10.63
2019-05-13T05:03:04.830Z,13.47
2019-05-13T05:05:55.377Z,13.13
2019-05-13T05:08:52.482Z,14.40
2019-05-13T05:11:52.902Z,13.47
2019-05-13T05:14:32.535Z,12.53
2019-05-13T05:17:43.419Z,11.63
2019-05-13T05:20:34.117Z,15.63
2019-05-13T05:23:34.023Z,16.60
2019-05-13T05:26:45.953Z,19.87
2019-05-13T05:29:51.636Z,25.12
2019-05-13T05:32:54.411Z,25.08
2019-05-13T05:36:01.822Z,19.97
2019-05-13T05:38:43.415Z,17.53
2019-05-13T05:41:18.129Z,16.80
2019-05-13T05:43:53.158Z,10.73
2019-05-13T05:46:26.666Z,17.57
2019-05-13T05:49:02.118Z,16.60
2019-05-13T05:51:35.317Z,13.55
2019-05-13T05:54:11.163Z,13.90
2019-05-13T05:56:42.134Z,16.82
2019-05-13T05:59:13.181Z,17.92
2019-05-13T06:01:47.669Z,13.78
2019-05-13T06:04:21.998Z,11.77
2019-05-13T06:06:56.165Z,13.00
2019-05-13T06:09:27.759Z,12.63
2019-05-13T06:11:58.816Z,11.07
2019-05-13T06:14:32.380Z,15.20
2019-05-13T06:17:03.098Z,16.15
2019-05-13T06:19:34.667Z,15.98
2019-05-13T06:22:05.738Z,14.65
2019-05-13T06:24:36.957Z,17.90
2019-05-13T06:27:08.100Z,18.25
2019-05-13T06:29:39.258Z,21.53
2019-05-13T06:32:19.098Z,22.35
2019-05-13T06:34:43.447Z,20.67
2019-05-13T06:37:14.586Z,24.33
2019-05-13T06:39:45.816Z,23.98
2019-05-13T06:42:17.135Z,22.00
2019-05-13T06:44:48.208Z,21.42
2019-05-13T06:47:21.749Z,23.47
2019-05-13T06:49:52.081Z,20.90
2019-05-13T06:52:23.212Z,25.10
2019-05-13T06:54:54.730Z,20.05
2019-05-13T06:57:25.835Z,18.90
2019-05-13T06:59:57.184Z,22.95
2019-05-13T07:02:28.411Z,22.10
2019-05-13T07:05:02.068Z,18.42
2019-05-13T07:07:32.520Z,21.90
2019-05-13T07:10:04.674Z,22.20
2019-05-13T07:12:38.451Z,20.25
2019-05-13T07:15:11.542Z,18.20
2019-05-13T07:17:43.512Z,27.27
2019-05-13T07:20:15.472Z,19.98
2019-05-13T07:22:46.510Z,23.70
2019-05-13T07:25:17.646Z,20.35
2019-05-13T07:27:51.386Z,24.60
2019-05-13T07:30:43.401Z,21.42
2019-05-13T07:33:14.736Z,21.83
2019-05-13T07:35:46.496Z,19.87
2019-05-13T07:38:18.763Z,21.67
2019-05-13T07:40:54.289Z,25.12
2019-05-13T07:43:25.851Z,20.00
2019-05-13T07:45:57.282Z,24.43
2019-05-13T07:48:28.549Z,33.78
2019-05-13T07:51:04.265Z,38.05
2019-05-13T07:53:33.477Z,23.80
2019-05-13T07:56:04.836Z,17.00
2019-05-13T07:58:37.539Z,19.48
2019-05-13T08:01:11.996Z,17.10
2019-05-13T08:03:42.297Z,18.55
2019-05-13T08:06:13.469Z,18.57
2019-05-13T08:08:44.593Z,19.85
2019-05-13T08:11:15.843Z,17.98
2019-05-13T08:13:46.872Z,18.15
2019-05-13T08:16:18.107Z,17.82
2019-05-13T08:18:49.097Z,22.52
2019-05-13T08:21:21.487Z,21.77
2019-05-13T08:23:53.238Z,15.30
2019-05-13T08:26:24.741Z,19.52
2019-05-13T08:29:01.611Z,21.50
2019-05-13T08:31:32.061Z,19.35
2019-05-13T08:34:04.059Z,30.32
2019-05-13T08:36:35.238Z,27.50
2019-05-13T08:39:12.755Z,21.57
2019-05-13T08:41:43.553Z,22.73
2019-05-13T08:44:14.857Z,22.20
2019-05-13T08:46:46.216Z,23.80
2019-05-13T08:49:17.589Z,20.00
2019-05-13T08:51:48.890Z,19.20
2019-05-13T08:54:21.996Z,16.52
2019-05-13T08:56:53.171Z,16.90
2019-05-13T08:59:24.227Z,13.35
2019-05-13T09:01:56.151Z,14.45
2019-05-13T09:04:27.303Z,12.05
2019-05-13T09:07:01.763Z,12.15
2019-05-13T09:09:32.393Z,15.72
2019-05-13T09:12:03.581Z,13.70
2019-05-13T09:14:34.772Z,9.83
2019-05-13T09:17:06.148Z,10.28
2019-05-13T09:19:37.753Z,13.28
2019-05-13T09:22:08.802Z,17.30
2019-05-13T09:24:42.262Z,13.90
2019-05-13T09:27:12.688Z,10.68
2019-05-13T09:29:43.682Z,10.68
2019-05-13T09:32:14.908Z,11.90
2019-05-13T09:34:45.956Z,10.80
2019-05-13T09:37:17.080Z,13.00
2019-05-13T09:39:48.238Z,11.12
2019-05-13T09:42:21.469Z,11.90
2019-05-13T09:44:52.644Z,8.85
2019-05-13T09:47:28.059Z,10.78
2019-05-13T09:49:57.248Z,7.30
2019-05-13T09:52:28.390Z,7.80
2019-05-13T09:54:59.779Z,10.72
2019-05-13T09:57:32.201Z,14.35
2019-05-13T10:00:05.537Z,10.35
2019-05-13T10:02:37.082Z,11.22
2019-05-13T10:05:11.192Z,10.48
2019-05-13T10:07:42.639Z,8.80
2019-05-13T10:10:15.711Z,10.30
2019-05-13T10:13:06.071Z,11.88
2019-05-13T10:15:22.150Z,9.18
2019-05-13T10:17:52.931Z,9.53
2019-05-13T10:20:58.381Z,8.00
2019-05-13T10:23:27.898Z,6.58
2019-05-13T10:26:06.682Z,8.55
2019-05-13T10:28:38.007Z,7.55
2019-05-13T10:31:12.004Z,5.25
2019-05-13T10:33:42.490Z,7.85
2019-05-13T10:36:14.352Z,6.87
2019-05-13T10:38:45.950Z,6.58
2019-05-13T10:41:17.019Z,8.78
2019-05-13T10:43:48.262Z,9.30
2019-05-13T10:46:21.605Z,9.18
2019-05-13T10:48:52.870Z,8.48
2019-05-13T10:51:24.204Z,8.30
2019-05-13T10:53:59.474Z,13.65
2019-05-13T10:56:28.406Z,7.72
2019-05-13T10:59:02.490Z,9.10
2019-05-13T11:01:32.894Z,11.65
2019-05-13T11:04:04.562Z,7.65
2019-05-13T11:06:35.753Z,10.80
2019-05-13T11:09:13.010Z,9.68
2019-05-13T11:11:44.125Z,9.90
2019-05-13T11:14:15.939Z,12.68
2019-05-13T11:16:47.325Z,10.68
2019-05-13T11:19:18.516Z,9.18
2019-05-13T11:21:50.797Z,9.48
2019-05-13T11:24:22.982Z,10.85
2019-05-13T11:26:54.336Z,8.03
2019-05-13T11:29:25.325Z,7.58
2019-05-13T11:31:56.514Z,6.40
2019-05-13T11:34:27.853Z,7.95
2019-05-13T11:36:59.149Z,6.55
2019-05-13T11:39:32.492Z,11.65
2019-05-13T11:42:03.012Z,7.28
2019-05-13T11:44:34.226Z,7.58
2019-05-13T11:47:06.163Z,8.00
2019-05-13T11:49:37.437Z,6.78
2019-05-13T11:52:11.099Z,8.00
2019-05-13T11:54:42.493Z,7.42
2019-05-13T11:57:13.764Z,9.18
2019-05-13T11:59:44.844Z,9.43
2019-05-13T12:02:15.937Z,9.85
2019-05-13T12:04:47.399Z,6.30
2019-05-13T12:07:18.790Z,5.10
2019-05-13T12:09:51.857Z,8.15
2019-05-13T12:12:30.175Z,8.85
2019-05-13T12:15:22.514Z,8.53
2019-05-13T12:17:28.794Z,10.45
2019-05-13T12:20:02.302Z,13.32
2019-05-13T12:22:32.623Z,9.95
2019-05-13T12:25:05.414Z,10.40
2019-05-13T12:27:36.565Z,8.03
2019-05-13T12:30:08.798Z,10.85
2019-05-13T12:32:43.771Z,10.43
2019-05-13T12:35:13.659Z,9.00
2019-05-13T12:37:45.123Z,7.67
2019-05-13T12:40:16.869Z,6.78
2019-05-13T12:42:48.059Z,9.15
2019-05-13T12:45:22.449Z,10.20
2019-05-13T12:47:53.640Z,9.40
2019-05-13T12:50:25.606Z,12.50
2019-05-13T12:52:56.923Z,13.78
2019-05-13T12:55:28.011Z,14.65
2019-05-13T12:58:02.482Z,11.73
2019-05-13T13:00:33.036Z,12.00
2019-05-13T13:03:04.345Z,9.10
2019-05-13T13:05:37.094Z,10.58
2019-05-13T13:08:24.019Z,6.78
2019-05-13T13:10:42.370Z,8.60
2019-05-13T13:13:14.127Z,6.87
2019-05-13T13:15:48.532Z,10.82
2019-05-13T13:18:18.015Z,10.28
2019-05-13T13:20:57.988Z,7.17
2019-05-13T13:23:23.695Z,8.03
2019-05-13T13:25:57.148Z,7.33
2019-05-13T13:28:27.759Z,4.90
2019-05-13T13:31:03.799Z,11.95
2019-05-13T13:33:34.290Z,10.45
2019-05-13T13:36:05.977Z,11.15
2019-05-13T13:38:37.702Z,12.00
2019-05-13T13:41:08.784Z,11.80
2019-05-13T13:43:42.026Z,8.40
2019-05-13T13:46:32.658Z,8.20
2019-05-13T13:48:45.588Z,7.15
2019-05-13T13:51:16.771Z,8.05
2019-05-13T13:53:47.851Z,8.40
2019-05-13T13:56:24.486Z,8.83
2019-05-13T13:58:52.050Z,8.70
2019-05-13T14:01:27.218Z,7.78
2019-05-13T14:03:56.171Z,8.83
2019-05-13T14:09:01.533Z,10.93
2019-05-13T14:11:33.487Z,10.85
2019-05-13T14:14:04.817Z,6.62
2019-05-13T14:16:36.082Z,15.03
2019-05-13T14:19:07.473Z,9.15
2019-05-13T14:21:38.570Z,7.00
2019-05-13T14:24:12.061Z,13.15
2019-05-13T14:26:43.460Z,14.38
2019-05-13T14:29:14.613Z,9.35
2019-05-13T14:31:45.887Z,7.42
2019-05-13T14:34:17.472Z,12.43
2019-05-13T14:36:51.767Z,11.03
2019-05-13T14:39:23.056Z,9.00
2019-05-13T14:41:54.346Z,12.85
2019-05-13T14:44:25.534Z,12.30
2019-05-13T14:46:56.996Z,9.65
2019-05-13T14:49:31.721Z,14.07
2019-05-13T14:52:02.986Z,12.82
2019-05-13T14:54:35.443Z,11.53
2019-05-13T14:57:11.720Z,13.65
2019-05-13T14:59:42.482Z,18.20
2019-05-13T15:02:13.640Z,19.67
2019-05-13T15:04:44.807Z,17.98
2019-05-13T15:07:16.330Z,19.60
2019-05-13T15:09:47.590Z,20.08
2019-05-13T15:12:21.417Z,41.42
2019-05-13T15:14:52.356Z,22.50
2019-05-13T15:17:23.764Z,28.62
2019-05-13T15:19:56.540Z,24.32
2019-05-13T15:22:27.879Z,20.77
2019-05-13T15:24:59.011Z,19.87
2019-05-13T15:27:31.727Z,14.63
2019-05-13T15:30:16.733Z,9.00
2019-05-13T15:32:36.139Z,12.68
2019-05-13T15:35:10.099Z,16.85
2019-05-13T15:37:41.747Z,15.60
2019-05-13T15:40:13.023Z,15.85
2019-05-13T15:42:44.257Z,9.63
2019-05-13T15:45:15.542Z,9.35
2019-05-13T15:47:46.898Z,9.65
2019-05-13T15:50:18.195Z,10.32
2019-05-13T15:52:49.352Z,16.82
2019-05-13T15:55:22.432Z,16.27
2019-05-13T15:57:53.683Z,19.90
2019-05-13T16:00:25.237Z,21.50
2019-05-13T16:02:56.238Z,24.82
2019-05-13T16:05:27.688Z,30.68
2019-05-13T16:08:01.385Z,20.62
2019-05-13T16:10:32.124Z,22.77
2019-05-13T16:13:03.108Z,20.95
2019-05-13T16:15:34.304Z,23.73
2019-05-13T16:18:05.512Z,17.75
2019-05-13T16:20:37.058Z,15.45
2019-05-13T16:23:08.273Z,14.50
2019-05-13T16:25:41.617Z,13.80
2019-05-13T16:28:13.531Z,15.23
2019-05-13T16:30:44.536Z,23.30
2019-05-13T16:33:16.077Z,22.50
2019-05-13T16:35:47.092Z,26.12
2019-05-13T16:38:18.444Z,25.17
2019-05-13T16:40:51.482Z,26.50
2019-05-13T16:43:22.915Z,21.52
2019-05-13T16:45:54.282Z,16.48
2019-05-13T16:48:25.469Z,18.62
2019-05-13T16:50:56.566Z,20.92
2019-05-13T16:53:27.679Z,20.85
2019-05-13T16:55:58.649Z,15.78
2019-05-13T16:58:32.428Z,23.47
2019-05-13T17:01:03.853Z,21.97
2019-05-13T17:03:36.371Z,23.73
2019-05-13T17:06:07.571Z,21.23
2019-05-13T17:08:39.333Z,25.17
2019-05-13T17:11:11.834Z,18.25
2019-05-13T17:13:43.533Z,13.15
2019-05-13T17:16:14.735Z,14.13
2019-05-13T17:18:45.881Z,17.77
2019-05-13T17:21:17.109Z,25.40
2019-05-13T17:23:48.420Z,19.90
2019-05-13T17:26:21.955Z,16.05
2019-05-13T17:28:52.230Z,16.87
2019-05-13T17:31:23.908Z,20.85
2019-05-13T17:33:54.939Z,14.78
2019-05-13T17:36:26.191Z,14.03
2019-05-13T17:38:57.163Z,14.15
2019-05-13T17:41:28.479Z,17.10
2019-05-13T17:43:59.614Z,33.55
2019-05-13T17:46:32.598Z,49.55
2019-05-13T17:49:03.749Z,47.93
2019-05-13T17:51:34.865Z,52.23
2019-05-13T17:54:06.126Z,52.98
2019-05-13T17:56:37.283Z,52.23
2019-05-13T17:59:08.500Z,57.40
2019-05-13T18:01:41.231Z,25.88
2019-05-13T18:04:12.590Z,36.40
2019-05-13T18:06:43.713Z,40.05
2019-05-13T18:09:14.914Z,37.63
2019-05-13T18:11:45.947Z,34.65
2019-05-13T18:14:16.988Z,33.08
2019-05-13T18:16:48.208Z,39.33
2019-05-13T18:19:19.442Z,24.47
2019-05-13T18:21:51.605Z,25.55
2019-05-13T18:24:23.059Z,16.42
2019-05-13T18:26:54.280Z,17.98
2019-05-13T18:29:26.167Z,13.30
2019-05-13T18:31:57.372Z,15.68
2019-05-13T18:34:28.554Z,18.17
2019-05-13T18:37:02.187Z,12.55
2019-05-13T18:39:32.603Z,15.78
2019-05-13T18:42:03.735Z,23.47
2019-05-13T18:44:34.962Z,44.53
2019-05-13T18:47:06.236Z,38.83
2019-05-13T18:49:37.234Z,34.15
2019-05-13T18:52:08.386Z,30.35
2019-05-13T18:54:41.910Z,32.28
2019-05-13T18:57:12.450Z,32.42
2019-05-13T18:59:43.620Z,25.82
2019-05-13T19:02:14.668Z,28.60
2019-05-13T19:04:45.560Z,20.45
2019-05-13T19:07:16.920Z,16.95
2019-05-13T19:09:48.167Z,20.35
2019-05-13T19:12:21.992Z,19.45
2019-05-13T19:14:53.393Z,19.17
2019-05-13T19:17:24.562Z,20.45
2019-05-13T19:19:55.586Z,18.73
2019-05-13T19:22:26.848Z,17.20
2019-05-13T19:24:57.942Z,18.70
2019-05-13T19:27:28.939Z,18.80
2019-05-13T19:30:01.350Z,23.73
2019-05-13T19:32:32.784Z,24.18
2019-05-13T19:35:04.518Z,24.55
2019-05-13T19:37:36.301Z,22.50
2019-05-13T19:40:08.990Z,20.60
2019-05-13T19:42:41.875Z,23.20
2019-05-13T19:45:13.573Z,20.77
2019-05-13T19:47:44.964Z,14.33
2019-05-13T19:50:16.510Z,15.28
2019-05-13T19:52:47.566Z,14.00
2019-05-13T19:55:18.700Z,11.73
2019-05-13T19:57:51.700Z,15.98
2019-05-13T20:00:23.095Z,13.25
2019-05-13T20:02:54.248Z,11.30
2019-05-13T20:05:25.234Z,12.75
2019-05-13T20:07:56.438Z,12.33
2019-05-13T20:10:31.344Z,16.73
2019-05-13T20:13:01.955Z,17.27
2019-05-13T20:15:33.386Z,18.73
2019-05-13T20:18:05.014Z,19.95
2019-05-13T20:20:36.254Z,20.10
2019-05-13T20:23:07.534Z,18.27
2019-05-13T20:25:38.542Z,16.10
2019-05-13T20:28:11.604Z,16.75
2019-05-13T20:30:45.389Z,16.07
2019-05-13T20:33:15.294Z,14.78
2019-05-13T20:35:46.534Z,13.77
2019-05-13T20:38:17.524Z,12.27
2019-05-13T20:40:51.792Z,13.93
2019-05-13T20:43:22.575Z,12.85
2019-05-13T20:45:53.855Z,11.50
2019-05-13T20:48:25.003Z,13.58
2019-05-13T20:50:56.074Z,12.07
2019-05-13T20:53:27.347Z,11.70
2019-05-13T20:55:58.306Z,11.77
2019-05-13T20:58:31.572Z,13.80
2019-05-13T21:01:02.638Z,14.43
2019-05-13T21:03:33.905Z,12.77
2019-05-13T21:06:05.230Z,14.93
2019-05-13T21:08:36.312Z,13.23
2019-05-13T21:11:07.493Z,12.35
2019-05-13T21:13:38.629Z,13.43
2019-05-13T21:16:11.465Z,12.23
2019-05-13T21:18:42.681Z,10.33
2019-05-13T21:21:13.847Z,12.73
2019-05-13T21:23:45.111Z,12.05
2019-05-13T21:26:16.227Z,9.73
2019-05-13T21:28:47.521Z,9.10
2019-05-13T21:31:18.743Z,8.88
2019-05-13T21:33:51.393Z,9.35
2019-05-13T21:36:22.830Z,10.32
2019-05-13T21:38:54.226Z,10.70
2019-05-13T21:41:25.337Z,11.27
2019-05-13T21:43:56.562Z,10.50
2019-05-13T21:46:27.679Z,10.10
2019-05-13T21:49:00.959Z,14.40
2019-05-13T21:51:31.651Z,13.93
2019-05-13T21:54:02.866Z,11.93
2019-05-13T21:56:33.873Z,12.27
2019-05-13T21:59:04.975Z,13.03
2019-05-13T22:01:36.732Z,12.57
2019-05-13T22:04:09.239Z,14.83
2019-05-13T22:06:40.658Z,15.87
2019-05-13T22:09:13.239Z,14.03
2019-05-13T22:11:44.377Z,15.80
2019-05-13T22:14:15.347Z,15.87
2019-05-13T22:16:46.585Z,12.77
2019-05-13T22:19:17.745Z,11.03
2019-05-13T22:21:51.407Z,12.40
2019-05-13T22:24:22.150Z,10.70
2019-05-13T22:26:53.701Z,9.57
2019-05-13T22:29:24.959Z,11.17
2019-05-13T22:31:56.221Z,11.40
2019-05-13T22:34:27.207Z,11.50
2019-05-13T22:36:58.233Z,11.63
2019-05-13T22:39:32.295Z,13.48
2019-05-13T22:42:02.415Z,10.57
2019-05-13T22:44:33.835Z,15.83
2019-05-13T22:47:05.119Z,10.80
2019-05-13T22:49:36.456Z,11.23
2019-05-13T22:52:07.908Z,12.60
2019-05-13T22:54:41.224Z,14.57
2019-05-13T22:57:12.302Z,11.33
2019-05-13T22:59:43.304Z,13.37
2019-05-13T23:02:14.339Z,11.30
2019-05-13T23:04:45.423Z,13.13
2019-05-13T23:07:16.701Z,13.50
2019-05-13T23:09:47.853Z,10.90
2019-05-13T23:12:21.144Z,10.07
2019-05-13T23:14:52.143Z,14.87
2019-05-13T23:17:23.511Z,9.80
2019-05-13T23:19:54.846Z,11.70
2019-05-13T23:22:25.966Z,14.67
2019-05-13T23:24:56.856Z,17.73
2019-05-13T23:27:27.894Z,12.50
2019-05-13T23:30:01.079Z,15.80
2019-05-13T23:32:32.108Z,14.30
2019-05-13T23:35:03.477Z,18.73
2019-05-13T23:37:34.687Z,15.03
2019-05-13T23:40:08.169Z,15.00
2019-05-13T23:42:39.334Z,17.00
2019-05-13T23:45:11.455Z,13.23
2019-05-13T23:47:43.296Z,13.40
2019-05-13T23:50:14.686Z,12.87
2019-05-13T23:52:46.434Z,11.47
2019-05-13T23:55:17.596Z,16.03
2019-05-13T23:57:48.520Z,17.70
